Huvudsida
METAR-TAF:

METAR-TAF

Flygplatser :

Dasht-e Naz Airport

Sari, Iran

latitud: 36-38-09N, longitud: 53-11-37E, höjd: 11 m

Aktuellt väderrapport

Denna rapport gjordes för 57 minuter sedan, klockan 14:00 UTC
Vind 2 kt varierande vindriktning
Temperatur 26°C
Fuktighet 79%
Tryck 1014 hPa
Sikt 10 km eller mer
Spridda moln på en höjd av 3000 ft
Brutna moln på en höjd av 9000 ft

METAR: OINZ 201400Z VRB02KT 9999 SCT030 BKN090 26/22 Q1014

Tid: 19:27 (14:57 UTC)


TAF: saknas

Aktuella väderrapporter och prognoser från 4000 flygplatser (METAR- och TAF-rapporter).

De tillgängliga stationerna syns som gula och röda prickar på kartan.

För musen över prickarna för att se namnen på stationerna.

Klicka sedan för att få väderrapporter och prognoser.

För att ändra kartan: Klicka på de gröna knapparna med ett svart kors på för att zooma in; den gröna knappen med ett streck på för att zooma ut; eller på de gröna pilarna för angränsande kartor.


METAR-TAF: